Latest Weather Observations for Gingin Airport

IDW60801

Issued at 4:02 pm WST Friday 27 May 2016 (issued every 30 minutes, with the page automatically refreshed every 10 minutes)

About weather observations | Map of weather stations | Latest weather observations for WA | Other Formats
Station Details ID: 009178 Name: GINGIN AERO Lat: -31.46 Lon: 115.86 Height: 73.0 m
Data from the previous 72 hours. | See also: Recent months at Gingin Airport
Date/Time
WST
Temp
°C
App
Temp
°C
Dew
Point
Rel
Hum
%
Delta-T
°C
Wind Press
QNH
hPa
Press
MSL
hPa
Rain
since 9 am
mm
Dir
 
Spd
km/h
Gust
km/h
Spd
kts
Gust
kts
27/04:00pm 19.7 16.6 8.7 49 5.8 NNE 15 20 8 11 1018.2 1018.1 0.0
27/03:30pm 20.1 16.8 8.1 46 6.2 N 15 20 8 11 1018.3 1018.2 0.0
27/03:00pm 20.3 16.7 6.6 41 6.9 N 15 20 8 11 1018.6 1018.5 0.0
27/02:30pm 20.2 16.6 6.9 42 6.8 N 15 20 8 11 1019.0 1018.9 0.0
27/02:00pm 20.4 16.9 7.1 42 6.8 N 15 20 8 11 1019.4 1019.3 0.0
27/01:30pm 20.1 15.6 6.1 40 7.0 NNE 19 30 10 16 1019.9 1019.8 0.0
27/01:00pm 19.4 16.0 7.8 47 6.0 NNE 15 28 8 15 1020.3 1020.2 0.0
27/12:30pm 19.3 15.5 7.4 46 6.1 N 17 24 9 13 1021.0 1020.9 0.0
27/12:00pm 19.2 15.6 8.5 50 5.6 NNE 17 26 9 14 1021.5 1021.4 0.0
27/11:30am 19.0 15.7 9.5 54 5.0 NNE 17 24 9 13 1022.1 1022.0 0.0
27/11:00am 18.2 15.0 10.1 59 4.3 NE 17 22 9 12 1022.5 1022.4 0.0
27/10:30am 17.5 14.7 10.1 62 3.9 NE 15 20 8 11 1023.0 1022.9 0.0
27/10:00am 16.6 14.1 10.9 69 3.0 NE 15 20 8 11 1023.2 1023.1 0.0
27/09:30am 14.9 12.6 10.3 74 2.4 NE 13 19 7 10 1023.3 1023.2 0.0
27/09:00am 12.5 11.2 10.0 85 1.3 E 7 11 4 6 1023.1 1023.0 0.0
27/08:30am 10.3 8.9 9.5 95 0.4 E 7 9 4 5 1022.8 1022.7 0.0
27/08:00am 7.3 6.6 6.9 97 0.2 CALM 0 0 0 0 1023.1 1023.0 0.0
27/07:30am 4.5 2.0 3.8 95 0.3 E 6 7 3 4 1023.1 1023.0 0.0
27/07:00am 3.4 1.0 2.4 93 0.4 E 4 7 2 4 1022.8 1022.7 0.0
27/06:30am 4.1 2.3 3.2 94 0.4 E 2 6 1 3 1022.5 1022.4 0.0
27/06:00am 4.3 1.7 3.3 93 0.4 E 6 7 3 4 1022.3 1022.2 0.0
27/05:30am 4.9 2.4 4.0 94 0.4 E 6 7 3 4 1022.4 1022.3 0.0
27/05:00am 4.3 1.5 3.3 93 0.4 E 7 7 4 4 1022.5 1022.4 0.0
27/04:30am 4.7 2.0 3.8 94 0.4 E 7 7 4 4 1022.6 1022.5 0.0
27/04:00am 4.9 2.2 3.9 93 0.4 E 7 7 4 4 1022.6 1022.5 0.0
27/03:30am 5.1 2.5 4.1 93 0.4 E 7 7 4 4 1022.6 1022.5 0.0
27/03:00am 5.9 3.5 5.2 95 0.3 E 7 9 4 5 1022.7 1022.6 0.0
27/02:30am 4.9 3.6 3.9 93 0.4 CALM 0 0 0 0 1022.7 1022.6 0.0
27/02:00am 5.5 4.3 4.6 94 0.4 CALM 0 6 0 3 1022.7 1022.6 0.0
27/01:30am 6.6 4.5 6.0 96 0.3 E 6 7 3 4 1022.7 1022.6 0.0
27/01:00am 6.7 4.5 6.1 96 0.3 E 7 9 4 5 1022.7 1022.6 0.0
27/12:30am 6.7 5.0 6.0 95 0.3 E 4 7 2 4 1022.9 1022.8 0.0
27/12:00am 7.4 5.5 6.8 96 0.3 E 6 7 3 4 1022.9 1022.8 0.0
 
Date/Time
WST
Temp
°C
App
Temp
°C
Dew
Point
Rel
Hum
%
Delta-T
°C
Wind Press
QNH
hPa
Press
MSL
hPa
Rain
since 9 am
mm
Dir
 
Spd
km/h
Gust
km/h
Spd
kts
Gust
kts
26/11:30pm 6.6 4.3 5.7 94 0.4 E 7 9 4 5 1023.1 1023.0 0.0
26/11:00pm 6.9 5.2 6.0 94 0.4 S 4 6 2 3 1023.3 1023.2 0.0
26/10:30pm 7.5 6.7 6.6 94 0.4 CALM 0 0 0 0 1023.4 1023.3 0.0
26/10:00pm 7.7 7.0 6.8 94 0.4 CALM 0 0 0 0 1023.2 1023.1 0.0
26/09:30pm 8.1 7.4 6.9 92 0.6 CALM 0 0 0 0 1023.0 1022.9 0.0
26/09:00pm 8.4 7.7 6.9 90 0.7 CALM 0 0 0 0 1022.7 1022.6 0.0
26/08:30pm 10.3 10.1 9.2 93 0.5 CALM 0 0 0 0 1022.7 1022.6 0.0
26/08:00pm 10.5 10.3 8.9 90 0.8 CALM 0 0 0 0 1022.6 1022.5 0.0
26/07:30pm 11.1 11.0 9.4 89 0.9 CALM 0 0 0 0 1022.4 1022.3 0.0
26/07:00pm 11.9 11.8 9.6 86 1.2 CALM 0 2 0 1 1022.0 1021.9 0.0
26/06:30pm 14.2 13.1 10.6 79 1.9 S 7 9 4 5 1021.6 1021.5 0.0
26/06:00pm 14.7 13.3 10.9 78 2.0 S 9 9 5 5 1021.0 1020.9 0.0
26/05:30pm 15.6 14.5 10.8 73 2.6 S 7 7 4 4 1020.8 1020.7 0.0
26/05:00pm 16.4 15.0 10.9 70 2.9 S 9 11 5 6 1020.4 1020.3 0.0
26/04:30pm 17.1 14.9 10.9 67 3.3 S 13 19 7 10 1020.2 1020.1 0.0
26/04:00pm 17.7 15.4 10.6 63 3.8 S 13 17 7 9 1019.9 1019.8 0.0
26/03:30pm 17.9 14.3 10.0 60 4.2 SSW 19 26 10 14 1019.7 1019.6 0.0
26/03:00pm 18.4 14.4 10.5 60 4.2 SW 22 33 12 18 1019.7 1019.6 0.0
26/02:30pm 18.7 14.7 11.8 64 3.8 SSW 24 30 13 16 1019.2 1019.1 0.0
26/02:00pm 18.9 15.4 12.2 65 3.7 SSW 22 28 12 15 1019.0 1018.9 0.0
26/01:30pm 19.6 15.5 11.6 60 4.4 SW 24 32 13 17 1019.0 1018.9 0.0
26/01:00pm 19.7 15.1 10.9 57 4.8 SW 26 35 14 19 1019.0 1018.9 0.0
26/12:30pm 18.9 14.1 10.2 57 4.7 WSW 26 32 14 17 1019.0 1018.9 0.0
26/12:00pm 19.2 14.7 9.9 55 5.0 SW 24 30 13 16 1019.0 1018.9 0.0
26/11:30am 18.5 15.1 11.3 63 3.9 WSW 20 32 11 17 1018.6 1018.5 0.0
26/11:00am 18.2 14.9 11.5 65 3.7 WSW 20 28 11 15 1019.1 1019.0 0.0
26/10:30am 18.8 16.7 13.6 72 3.0 SW 17 20 9 11 1019.2 1019.1 0.0
26/10:00am 16.8 17.5 13.3 80 2.0 WSW 2 9 1 5 1018.3 1018.2 0.0
26/09:30am 15.4 15.1 12.7 84 1.5 NW 6 7 3 4 1018.3 1018.2 0.0
26/09:00am 13.9 13.5 12.5 91 0.8 W 6 11 3 6 1018.1 1018.0 2.4
26/08:30am 12.8 11.7 12.0 95 0.4 N 9 11 5 6 1017.5 1017.4 2.4
26/08:00am 12.0 10.7 11.4 96 0.3 N 9 13 5 7 1016.9 1016.9 2.4
26/07:30am 11.5 10.1 11.0 97 0.3 NNW 9 13 5 7 1016.8 1016.8 2.4
26/07:00am 11.4 9.6 10.9 97 0.3 N 11 11 6 6 1015.9 1015.8 2.4
26/06:30am 11.0 10.0 10.4 96 0.3 N 6 11 3 6 1016.0 1015.9 2.4
26/06:00am 11.7 10.8 11.2 97 0.3 NNW 7 9 4 5 1015.7 1015.6 2.4
26/05:30am 11.9 10.6 11.3 96 0.3 N 9 9 5 5 1014.9 1014.8 2.4
26/05:00am 12.0 11.0 11.1 94 0.5 NNW 7 9 4 5 1015.3 1015.2 2.4
26/04:30am 12.7 11.1 11.6 93 0.6 W 11 15 6 8 1014.7 1014.6 2.4
26/04:00am 12.4 11.3 11.8 96 0.3 NNW 9 15 5 8 1014.6 1014.5 2.4
26/03:30am 12.5 11.4 11.9 96 0.3 NW 9 15 5 8 1014.5 1014.4 2.4
26/03:00am 12.5 11.8 11.9 96 0.3 NNW 7 7 4 4 1014.0 1013.9 2.4
26/02:30am 12.7 11.7 12.4 98 0.2 NNW 9 15 5 8 1014.3 1014.2 2.2
26/02:00am 12.7 11.7 12.4 98 0.2 NNW 9 11 5 6 1013.7 1013.6 2.2
26/01:30am 12.4 11.7 11.9 97 0.3 NW 7 11 4 6 1013.9 1013.8 2.2
26/01:00am 12.5 13.1 12.0 97 0.3 CALM 0 0 0 0 1013.5 1013.4 2.0
26/12:30am 12.3 11.7 11.8 97 0.3 NNW 6 7 3 4 1013.6 1013.5 1.8
26/12:00am 12.2 11.0 11.6 96 0.3 N 9 13 5 7 1013.5 1013.4 1.8
 
Date/Time
WST
Temp
°C
App
Temp
°C
Dew
Point
Rel
Hum
%
Delta-T
°C
Wind Press
QNH
hPa
Press
MSL
hPa
Rain
since 9 am
mm
Dir
 
Spd
km/h
Gust
km/h
Spd
kts
Gust
kts
25/11:30pm 12.6 11.1 11.8 95 0.4 N 11 13 6 7 1013.8 1013.7 1.8
25/11:00pm 12.7 9.6 12.1 96 0.3 WNW 20 35 11 19 1014.3 1014.2 1.8
25/10:30pm 12.1 11.3 11.6 97 0.3 NNE 7 9 4 5 1014.2 1014.1 1.0
25/10:00pm 11.2 9.7 10.6 96 0.3 NNE 9 11 5 6 1013.5 1013.4 0.6
25/09:30pm 12.3 11.6 11.5 95 0.4 N 6 6 3 3 1014.0 1013.9 0.6
25/09:00pm 12.9 12.4 12.0 94 0.5 W 6 11 3 6 1013.7 1013.6 0.6
25/08:30pm 13.0 12.3 11.9 93 0.6 W 7 11 4 6 1014.4 1014.3 0.6
25/08:00pm 12.9 11.8 10.8 87 1.1 N 7 9 4 5 1013.8 1013.7 0.2
25/07:30pm 13.3 11.5 11.0 86 1.2 NW 11 20 6 11 1013.9 1013.8 0.2
25/07:00pm 12.4 11.1 9.8 84 1.3 NNW 7 9 4 5 1013.6 1013.5 0.2
25/06:30pm 13.6 12.3 9.8 78 2.0 NNW 7 9 4 5 1013.5 1013.4 0.2
25/06:00pm 14.3 12.6 9.7 74 2.4 WNW 9 13 5 7 1013.1 1013.0 0.2
25/05:30pm 15.0 13.6 9.4 69 2.9 WNW 7 9 4 5 1012.7 1012.6 0.2
25/05:00pm 16.7 13.9 9.9 64 3.6 WNW 15 20 8 11 1012.7 1012.6 0.2
25/04:30pm 17.5 14.2 9.7 60 4.1 WNW 17 24 9 13 1012.6 1012.5 0.2
25/04:00pm 18.0 15.5 10.9 63 3.8 WNW 15 20 8 11 1012.4 1012.3 0.2
25/03:30pm 17.3 13.7 10.0 62 3.9 WNW 19 24 10 13 1012.1 1012.0 0.2
25/03:00pm 18.8 15.9 10.9 60 4.3 NW 17 26 9 14 1012.0 1011.9 0.2
25/02:30pm 17.6 15.8 10.9 65 3.6 NNW 11 17 6 9 1012.1 1012.0 0.2
25/02:00pm 17.2 13.4 9.9 62 3.9 WNW 20 32 11 17 1012.2 1012.1 0.2
25/01:30pm 17.2 13.6 10.6 65 3.5 W 20 32 11 17 1011.9 1011.8 0.2
25/01:00pm 17.8 15.2 12.0 69 3.2 NW 17 22 9 12 1011.9 1011.8 0.2
25/12:30pm 16.9 15.1 10.7 67 3.3 NW 11 17 6 9 1012.0 1011.9 0.2
25/12:00pm 15.7 14.4 12.6 82 1.7 NW 11 17 6 9 1012.3 1012.2 0.2
25/11:30am 15.8 13.3 12.2 79 2.0 WNW 17 24 9 13 1012.7 1012.6 0.2
25/11:00am 16.3 14.6 12.3 77 2.2 NW 13 20 7 11 1012.6 1012.5 0.2
25/10:30am 16.4 14.6 12.2 76 2.3 NNW 13 19 7 10 1012.8 1012.7 0.0
25/10:00am 15.8 13.3 12.4 80 1.9 N 17 22 9 12 1012.9 1012.8 0.0
25/09:30am 14.9 12.4 12.4 85 1.4 N 17 20 9 11 1012.9 1012.8 0.0
25/09:00am 13.4 11.4 11.5 88 1.0 N 13 17 7 9 1012.9 1012.8 0.0
25/08:30am 12.5 10.9 11.7 95 0.4 NNW 11 17 6 9 1012.7 1012.6 0.0
25/08:00am 12.1 10.5 11.5 96 0.3 NNW 11 15 6 8 1012.7 1012.6 0.0
25/07:30am 11.5 9.7 11.0 97 0.3 N 11 15 6 8 1012.2 1012.1 0.0
25/07:00am 11.4 10.0 10.8 96 0.3 N 9 13 5 7 1012.1 1012.0 0.0
25/06:30am 11.1 8.8 10.3 95 0.4 NNW 13 17 7 9 1011.8 1011.7 0.0
25/06:00am 10.3 8.9 9.7 96 0.3 N 7 11 4 6 1011.6 1011.5 0.0
25/05:30am 10.1 8.6 9.3 95 0.4 N 7 9 4 5 1011.3 1011.2 0.0
25/05:00am 10.3 8.6 9.7 96 0.3 N 9 13 5 7 1011.1 1011.0 0.0
25/04:30am 10.1 8.3 9.3 95 0.4 N 9 11 5 6 1011.2 1011.1 0.0
25/04:00am 10.1 8.3 9.5 96 0.3 N 9 11 5 6 1011.1 1011.0 0.0
25/03:30am 10.0 9.1 9.2 95 0.4 N 4 9 2 5 1011.2 1011.1 0.0
25/03:00am 10.2 8.4 9.4 95 0.4 N 9 11 5 6 1011.3 1011.2 0.0
25/02:30am 10.0 9.8 9.2 95 0.4 CALM 0 0 0 0 1011.4 1011.3 0.0
25/02:00am 9.6 7.6 8.8 95 0.4 N 9 11 5 6 1011.3 1011.2 0.0
25/01:30am 9.1 7.3 8.0 93 0.5 N 7 9 4 5 1011.2 1011.1 0.0
25/01:00am 9.8 8.1 8.4 91 0.7 N 7 11 4 6 1011.3 1011.2 0.0
25/12:30am 10.1 8.7 9.0 93 0.5 NNE 6 7 3 4 1011.3 1011.2 0.0
25/12:00am 10.2 8.2 8.6 90 0.8 NNW 9 13 5 7 1011.3 1011.2 0.0
 
Date/Time
WST
Temp
°C
App
Temp
°C
Dew
Point
Rel
Hum
%
Delta-T
°C
Wind Press
QNH
hPa
Press
MSL
hPa
Rain
since 9 am
mm
Dir
 
Spd
km/h
Gust
km/h
Spd
kts
Gust
kts
24/11:30pm 10.5 9.2 9.1 91 0.7 NNW 6 9 3 5 1011.2 1011.1 0.0
24/11:00pm 11.0 9.8 9.4 90 0.8 WSW 6 7 3 4 1011.2 1011.1 0.0
24/10:30pm 11.2 9.8 9.5 89 0.9 WSW 7 13 4 7 1011.5 1011.4 0.0
24/10:00pm 11.4 9.9 9.0 85 1.2 WNW 7 13 4 7 1011.4 1011.3 0.0
24/09:30pm 12.3 12.5 10.4 88 1.0 CALM 0 0 0 0 1011.4 1011.3 0.0
24/09:00pm 11.6 9.9 9.7 88 1.0 WSW 9 11 5 6 1011.5 1011.4 0.0
24/08:30pm 10.9 9.3 8.7 86 1.1 WNW 7 7 4 4 1011.3 1011.2 0.0
24/08:00pm 12.3 10.8 9.1 81 1.6 WNW 7 9 4 5 1011.3 1011.2 0.0
24/07:30pm 13.0 11.2 9.4 79 1.8 WNW 9 13 5 7 1011.2 1011.1 0.0
24/07:00pm 13.3 11.2 9.9 80 1.8 WSW 11 13 6 7 1011.0 1010.9 0.0
24/06:30pm 13.4 11.7 9.8 79 1.9 W 9 15 5 8 1010.8 1010.7 0.0
24/06:00pm 13.8 12.4 8.8 72 2.5 W 6 9 3 5 1010.2 1010.1 0.0
24/05:30pm 14.8 12.8 8.5 66 3.2 W 9 11 5 6 1009.8 1009.7 0.0
24/05:00pm 16.1 13.4 8.8 62 3.8 WSW 13 17 7 9 1009.6 1009.5 0.0
24/04:30pm 16.7 12.6 8.7 59 4.1 WSW 20 26 11 14 1009.4 1009.3 0.0

Other Formats:

Comma delimited format used in spreadsheet applications
http://www.bom.gov.au/fwo/IDW60801/IDW60801.95612.axf

JavaScript Object Notation format (JSON) in row-major order
http://www.bom.gov.au/fwo/IDW60801/IDW60801.95612.json